Bei Facebook empfehlenBei Twitter postenGoogle plusPinterest

Das Wetter im Erzgebirge am 11.08.2016

Wetter und Klima am 11.08.2016 Holzhau im Erzgebirge (630m ü.NN)
Letzte gemessene Temperatur und Uhrzeit der Messung23:45:00 Uhr8.70 °C
Temperatur (Maximum / Höchstwert) und Uhrzeit der Messung17:00:00 Uhr16.90 °C
Temperatur (Minimum / Tiefstwert) und Uhrzeit der Messung06:45:001.30 °C
Errechneter Absolutwert der Temperaturschwankungen zwischen Tmin und Tmax des Tages15.60 K
Errechnete Tagesmitteltemperatur9.82500 °C
Gesamt - Niederschlag des Tages (in flüssiger Form)0.00 Liter / m²
Luftdruck (Maximum / Höchstwert) und Zeitpunkt der Messung11:15:00 Uhr1019.20 hPa
Luftdruck (Minimum / Tiefstwert) und Zeitpunkt der Messung00:15:00 Uhr1016.90 hPa
Errechneter Absolutwert der Luftdruckschwankungen des Tages2.30 hPa
Höchste gemessene Windgeschwindigkeit und Uhrzeit der Messung23:45:00 Uhr0.00 km/h
Errechnete Windhäufigkeit in Relation zu den Messwerten des Tages0.00000 %
Niedrigste Windkühle (Windchill) und Zeitpunkt der Messung06:45:00 Uhr1.30 °C
Taupunkt (Maximum / Höchstwert) und Uhrzeit der Messung09:15:00 Uhr9.90 °C
Taupunkt (Minimum / Tiefstwert) und Uhrzeit der Messung06:45:000.10 °C
Anzahl der automatisch eingelesenen Messwerte 96

Detaillierte Wetter- und Klima- Messwerte für den 11.08.2016 in Holzhau im Erzgebirge (630m ü.NN)
ZeitTemperaturLuftdruckRel. LuftfeuchteWindWindrichtungWindchillTaupunktNiederschlag l/m²
23:45:008.70 °C1018.30 hPa84.00 %6.20 °C 
23:30:008.80 °C1018.30 hPa83.00 %6.10 °C 
23:15:008.90 °C1018.40 hPa82.00 %6.00 °C 
23:00:008.90 °C1018.40 hPa82.00 %6.00 °C 
22:45:008.90 °C1018.40 hPa81.00 %5.80 °C 
22:30:009.10 °C1018.40 hPa81.00 %6.00 °C 
22:15:009.20 °C1018.50 hPa80.00 %5.90 °C 
22:00:009.30 °C1018.30 hPa79.00 %5.90 °C 
21:45:009.40 °C1018.40 hPa78.00 %5.80 °C 
21:30:009.60 °C1018.50 hPa77.00 %5.80 °C 
21:15:009.80 °C1018.40 hPa76.00 %5.80 °C 
21:00:0010.10 °C1018.40 hPa74.00 %5.70 °C 
20:45:0010.60 °C1018.10 hPa72.00 %5.80 °C 
20:30:0011.20 °C1018.20 hPa71.00 %6.10 °C 
20:15:0011.60 °C1018.40 hPa69.00 %6.10 °C 
20:00:0012.20 °C1018.20 hPa66.00 %6.00 °C 
19:45:0012.70 °C1018.20 hPa64.00 %6.10 °C 
19:30:0012.90 °C1018.30 hPa62.00 %5.80 °C 
19:15:0013.30 °C1018.30 hPa62.00 %6.20 °C 
19:00:0013.60 °C1018.40 hPa61.00 %6.20 °C 
18:45:0014.10 °C1018.30 hPa59.00 %6.20 °C 
18:30:0014.60 °C1018.20 hPa57.00 %6.20 °C 
18:15:0015.30 °C1018.20 hPa55.00 %6.30 °C 
18:00:0015.80 °C1018.10 hPa56.00 %7.00 °C 
17:45:0015.50 °C1018.10 hPa56.00 %6.80 °C 
17:30:0015.10 °C1018.30 hPa55.00 %6.10 °C 
17:15:0015.90 °C1018.20 hPa53.00 %6.30 °C 
17:00:0016.90 °C1018.30 hPa53.00 %7.30 °C 
16:45:0016.80 °C1018.40 hPa53.00 %7.20 °C 
16:30:0016.50 °C1018.20 hPa55.00 %7.40 °C 
16:15:0016.40 °C1018.00 hPa55.00 %7.30 °C 
16:00:0015.90 °C1018.30 hPa55.00 %6.90 °C 
15:45:0015.80 °C1018.20 hPa53.00 %6.30 °C 
15:30:0016.70 °C1018.10 hPa55.00 %7.60 °C 
15:15:0016.40 °C1018.20 hPa55.00 %7.30 °C 
15:00:0016.20 °C1018.40 hPa56.00 %7.40 °C 
14:45:0015.90 °C1018.40 hPa61.00 %8.40 °C 
14:30:0014.90 °C1018.60 hPa60.00 %7.20 °C 
14:15:0015.60 °C1018.50 hPa60.00 %7.90 °C 
14:00:0015.20 °C1018.60 hPa60.00 %7.50 °C 
13:45:0016.00 °C1018.50 hPa60.00 %8.20 °C 
13:30:0015.60 °C1018.50 hPa63.00 %8.60 °C 
13:15:0013.90 °C1018.60 hPa63.00 %7.00 °C 
13:00:0014.10 °C1018.50 hPa67.00 %8.10 °C 
12:45:0013.90 °C1018.80 hPa66.00 %7.70 °C 
12:30:0013.30 °C1018.90 hPa67.00 %7.30 °C 
12:15:0013.50 °C1018.80 hPa70.00 %8.10 °C 
12:00:0012.90 °C1019.00 hPa67.00 %6.90 °C 
11:45:0013.20 °C1018.90 hPa68.00 %7.40 °C 
11:30:0013.60 °C1018.90 hPa68.00 %7.80 °C 
11:15:0014.40 °C1019.20 hPa68.00 %8.60 °C 
11:00:0014.30 °C1019.20 hPa71.00 %9.10 °C 
10:45:0013.80 °C1019.10 hPa72.00 %8.80 °C 
10:30:0013.90 °C1018.90 hPa76.00 %9.70 °C 
10:15:0013.00 °C1019.20 hPa78.00 %9.30 °C 
10:00:0012.60 °C1019.00 hPa82.00 %9.60 °C 
09:45:0012.40 °C1019.20 hPa84.00 %9.80 °C 
09:30:0011.80 °C1019.00 hPa87.00 %9.70 °C 
09:15:0011.50 °C1019.00 hPa90.00 %9.90 °C 
09:00:0010.90 °C1018.90 hPa91.00 %9.50 °C 
08:45:0010.20 °C1018.90 hPa93.00 %9.10 °C 
08:30:009.40 °C1018.80 hPa93.00 %8.30 °C 
08:15:008.50 °C1018.80 hPa93.00 %7.40 °C 
08:00:007.60 °C1018.60 hPa94.00 %6.70 °C 
07:45:006.30 °C1018.70 hPa93.00 %5.30 °C 
07:30:004.60 °C1018.60 hPa94.00 %3.70 °C 
07:15:002.30 °C1018.50 hPa93.00 %1.30 °C 
07:00:001.80 °C1018.40 hPa92.00 %0.60 °C 
06:45:001.30 °C1018.20 hPa92.00 %0.10 °C 
06:30:001.30 °C1018.00 hPa92.00 %0.10 °C 
06:15:001.30 °C1018.10 hPa92.00 %0.10 °C 
06:00:001.40 °C1018.00 hPa92.00 %0.20 °C 
05:45:001.80 °C1018.00 hPa92.00 %0.60 °C 
05:30:002.10 °C1017.80 hPa92.00 %0.90 °C 
05:15:002.40 °C1018.00 hPa92.00 %1.20 °C 
05:00:002.40 °C1017.80 hPa92.00 %1.20 °C 
04:45:002.80 °C1017.80 hPa92.00 %1.60 °C 
04:30:002.80 °C1017.70 hPa92.00 %1.60 °C 
04:15:002.50 °C1017.80 hPa91.00 %1.20 °C 
04:00:002.90 °C1017.60 hPa91.00 %1.60 °C 
03:45:003.20 °C1017.50 hPa91.00 %1.90 °C 
03:30:003.50 °C1017.70 hPa91.00 %2.20 °C 
03:15:003.80 °C1017.50 hPa91.00 %2.50 °C 
03:00:004.20 °C1017.20 hPa91.00 %2.90 °C 
02:45:004.60 °C1017.50 hPa91.00 %3.30 °C 
02:30:005.00 °C1017.40 hPa91.00 %3.70 °C 
02:15:005.30 °C1017.40 hPa91.00 %4.00 °C 
02:00:005.30 °C1017.50 hPa91.00 %4.00 °C 
01:45:005.20 °C1017.20 hPa91.00 %3.90 °C 
01:30:005.00 °C1017.20 hPa91.00 %3.70 °C 
01:15:004.70 °C1017.40 hPa90.00 %3.20 °C 
01:00:004.60 °C1017.20 hPa90.00 %3.10 °C 
00:45:004.90 °C1017.10 hPa90.00 %3.40 °C 
00:30:004.90 °C1017.10 hPa90.00 %3.40 °C 
00:15:005.20 °C1016.90 hPa90.00 %3.70 °C 
00:00:005.20 °C1016.90 hPa90.00 %3.70 °C 

Permanenter Link zu dieser Seite: Wetter im Erzgebirge am 11.08.2016
Performance-Info: Die Erstellung der Seite / Statistik(en) / Tabelle(n) erforderte 5 Datenbankserver-Abfrage(n) und dauerte 108 Millisekunden. (Dieser Messwert ist von der Gesamt-Auslastung des Servers abhängig.)
Erzgebirge - Wetter | Erzgebirge - Wetter (Mobilgeräte) | Komplette Klimadatenbank